Time;durP1;ratioP1;P1;durP2;ratioP2;P2;SDS_P1;SDS_P2;PMS_P1;PMS_P2;Temp;Humidity;BMP_temperature;BMP_pressure;BME280_temperature;BME280_humidity;BME280_pressure;Samples;Min_cycle;Max_cycle;Signal;HPM_P1;HPM_P2
2023/09/05 00:01:13;;;;;;;3.83;1.38;;;17.10;94.60;;;;;;5069059;28;20056;-76
2023/09/05 00:03:40;;;;;;;2.42;1.75;;;17.10;94.90;;;;;;5055418;28;20097;-77
2023/09/05 00:06:10;;;;;;;3.47;1.17;;;17.20;95.10;;;;;;5069589;28;20040;-77
2023/09/05 00:08:38;;;;;;;2.08;1.17;;;17.10;95.10;;;;;;5070799;28;20068;-76
2023/09/05 00:11:05;;;;;;;2.60;1.40;;;17.20;95.10;;;;;;5071309;28;20368;-77
2023/09/05 00:13:32;;;;;;;2.75;1.65;;;17.20;95.50;;;;;;5050486;28;20122;-77
2023/09/05 00:15:59;;;;;;;3.28;1.25;;;17.20;95.20;;;;;;5079953;28;20383;-76
2023/09/05 00:18:27;;;;;;;4.03;1.30;;;17.20;95.30;;;;;;5067490;28;20114;-76
2023/09/05 00:20:55;;;;;;;2.78;1.38;;;17.20;95.50;;;;;;5061861;28;20040;-77
2023/09/05 00:23:25;;;;;;;3.10;1.40;;;17.20;95.40;;;;;;5064042;28;20138;-77
2023/09/05 00:25:53;;;;;;;3.45;1.45;;;17.20;95.70;;;;;;5079055;28;22867;-77
2023/09/05 00:28:20;;;;;;;4.07;1.23;;;17.20;95.70;;;;;;5067904;28;20040;-77
2023/09/05 00:30:47;;;;;;;2.85;1.40;;;17.10;95.70;;;;;;5052046;28;20066;-77
2023/09/05 00:33:14;;;;;;;3.30;1.55;;;17.10;95.80;;;;;;5067152;28;20099;-77
2023/09/05 00:35:41;;;;;;;3.30;1.83;;;17.00;96.10;;;;;;5068577;28;20039;-76
2023/09/05 00:38:09;;;;;;;2.45;1.60;;;17.00;96.20;;;;;;5081675;28;20546;-76
2023/09/05 00:40:36;;;;;;;4.03;1.98;;;16.90;96.40;;;;;;5067038;28;20058;-76
2023/09/05 00:43:03;;;;;;;3.45;1.58;;;16.80;96.60;;;;;;5050109;28;20048;-77
2023/09/05 00:45:32;;;;;;;2.47;1.50;;;16.80;96.80;;;;;;5082144;28;20044;-77
2023/09/05 00:48:01;;;;;;;2.25;1.20;;;17.00;97.00;;;;;;5057219;28;20522;-76
2023/09/05 00:50:28;;;;;;;2.60;1.98;;;17.00;96.50;;;;;;5050866;28;20562;-77
2023/09/05 00:52:55;;;;;;;3.03;1.70;;;16.90;96.60;;;;;;5049717;28;20036;-77
2023/09/05 00:55:23;;;;;;;3.47;1.30;;;16.90;96.80;;;;;;5047899;28;21114;-77
2023/09/05 00:57:50;;;;;;;3.15;1.40;;;16.70;96.80;;;;;;5060826;28;20102;-77
2023/09/05 01:00:17;;;;;;;3.58;1.58;;;16.80;97.00;;;;;;5057732;28;20062;-77
2023/09/05 01:02:44;;;;;;;2.38;1.42;;;16.90;97.10;;;;;;5060717;28;20163;-77
2023/09/05 01:05:13;;;;;;;3.15;1.80;;;16.90;97.20;;;;;;5052514;28;20044;-77
2023/09/05 01:08:04;;;;;;;3.25;1.90;;;16.90;97.20;;;;;;5076759;28;20127;-77
2023/09/05 01:10:43;;;;;;;4.10;1.75;;;16.90;97.50;;;;;;5076660;28;22866;-77
2023/09/05 01:13:10;;;;;;;2.63;1.70;;;16.80;97.70;;;;;;5066155;28;20044;-77
2023/09/05 01:15:37;;;;;;;3.85;1.90;;;16.80;97.70;;;;;;5056238;28;20044;-77
2023/09/05 01:18:04;;;;;;;3.95;1.80;;;16.80;97.70;;;;;;5068686;28;20044;-77
2023/09/05 01:20:44;;;;;;;2.47;1.70;;;16.80;97.90;;;;;;5082400;28;22860;-77
2023/09/05 01:23:17;;;;;;;2.92;1.50;;;16.70;98.50;;;;;;5060554;28;20159;-77
2023/09/05 01:25:45;;;;;;;2.97;1.50;;;16.70;98.50;;;;;;5083387;28;20036;-77
2023/09/05 01:28:13;;;;;;;3.28;2.08;;;16.60;98.30;;;;;;5046904;28;20056;-77
2023/09/05 01:30:41;;;;;;;3.33;1.40;;;16.60;98.40;;;;;;5063066;28;20119;-77
2023/09/05 01:33:08;;;;;;;3.50;1.85;;;16.60;98.50;;;;;;5071386;28;20399;-77
2023/09/05 01:35:35;;;;;;;2.65;1.70;;;16.50;98.40;;;;;;5063088;28;20075;-76
2023/09/05 01:38:03;;;;;;;2.83;1.65;;;16.50;98.40;;;;;;5077768;28;20044;-76
2023/09/05 01:40:30;;;;;;;3.42;2.00;;;16.40;99.00;;;;;;5074854;28;20046;-77
2023/09/05 01:42:57;;;;;;;4.88;1.80;;;16.40;99.20;;;;;;5068515;28;20059;-77
2023/09/05 01:45:24;;;;;;;3.83;1.70;;;16.50;98.90;;;;;;5066179;28;20048;-77
2023/09/05 01:47:51;;;;;;;4.38;1.75;;;16.50;99.10;;;;;;5066620;28;20508;-77
2023/09/05 01:50:21;;;;;;;3.30;2.05;;;16.50;99.30;;;;;;5076324;28;20484;-77
2023/09/05 01:52:48;;;;;;;5.30;2.00;;;16.50;99.50;;;;;;5061653;28;20040;-77
2023/09/05 01:55:16;;;;;;;4.35;1.40;;;16.40;99.90;;;;;;5048508;28;20550;-77
2023/09/05 01:57:43;;;;;;;4.60;1.80;;;16.40;99.90;;;;;;5047281;28;22894;-77
2023/09/05 02:00:11;;;;;;;3.13;1.67;;;16.40;99.90;;;;;;5069562;28;20482;-77
2023/09/05 02:02:41;;;;;;;2.60;1.60;;;16.40;99.90;;;;;;5068026;28;20139;-77
2023/09/05 02:05:08;;;;;;;2.70;1.70;;;16.40;99.90;;;;;;5060759;28;20064;-77
2023/09/05 02:07:35;;;;;;;5.00;1.60;;;16.40;99.90;;;;;;5046262;28;20036;-77
2023/09/05 02:10:03;;;;;;;3.72;1.75;;;16.30;99.90;;;;;;5064718;28;20044;-77
2023/09/05 02:12:30;;;;;;;2.70;1.50;;;16.30;99.90;;;;;;5048143;28;20190;-77
2023/09/05 02:14:57;;;;;;;4.40;1.73;;;16.40;99.90;;;;;;5061111;28;20076;-77
2023/09/05 02:17:24;;;;;;;4.50;1.95;;;16.40;99.90;;;;;;5068965;28;20059;-77
2023/09/05 02:19:51;;;;;;;4.95;1.42;;;16.30;99.90;;;;;;5061664;28;20044;-77
2023/09/05 02:22:18;;;;;;;2.65;1.80;;;16.20;99.90;;;;;;5043497;28;20052;-77
2023/09/05 02:24:45;;;;;;;2.70;1.50;;;16.20;99.90;;;;;;5076700;28;20063;-77
2023/09/05 02:27:12;;;;;;;5.38;1.55;;;16.20;99.90;;;;;;5066631;28;20523;-77
2023/09/05 02:29:39;;;;;;;3.92;2.33;;;16.20;99.90;;;;;;5069763;28;20209;-77
2023/09/05 02:32:06;;;;;;;4.50;1.80;;;16.20;99.90;;;;;;5067112;28;20119;-77
2023/09/05 02:34:34;;;;;;;2.50;1.50;;;16.20;99.90;;;;;;5065332;28;20093;-77
2023/09/05 02:37:04;;;;;;;6.63;2.50;;;16.10;99.90;;;;;;5062229;28;20867;-77
2023/09/05 02:39:31;;;;;;;4.03;1.73;;;16.10;99.90;;;;;;5061140;28;20045;-77
2023/09/05 02:41:58;;;;;;;3.25;1.83;;;16.10;99.90;;;;;;5066150;28;20142;-77
2023/09/05 02:44:25;;;;;;;4.20;2.15;;;16.10;99.90;;;;;;5062007;28;22706;-77
2023/09/05 02:46:53;;;;;;;3.20;2.00;;;16.00;99.90;;;;;;5064144;28;20503;-77
2023/09/05 02:49:20;;;;;;;3.70;1.75;;;16.00;99.90;;;;;;5061085;28;20549;-77
2023/09/05 02:51:47;;;;;;;4.78;2.30;;;16.00;99.90;;;;;;5061040;28;20072;-77
2023/09/05 02:54:14;;;;;;;3.53;2.10;;;16.00;99.90;;;;;;5068752;28;20102;-77
2023/09/05 02:56:41;;;;;;;3.05;2.10;;;16.00;99.90;;;;;;5047752;28;22858;-76
2023/09/05 02:59:08;;;;;;;3.22;1.95;;;16.00;99.90;;;;;;5066069;28;20166;-77
2023/09/05 03:01:36;;;;;;;3.00;1.85;;;15.90;99.90;;;;;;5062665;28;20132;-77
2023/09/05 03:04:03;;;;;;;4.93;2.58;;;15.90;99.90;;;;;;5063695;28;20056;-76
2023/09/05 03:06:30;;;;;;;5.00;2.28;;;16.00;99.90;;;;;;5050946;28;20060;-76
2023/09/05 03:08:58;;;;;;;4.65;2.13;;;15.90;99.90;;;;;;5071916;28;20044;-77
2023/09/05 03:11:25;;;;;;;3.28;2.22;;;15.90;99.90;;;;;;5051974;28;20045;-77
2023/09/05 03:13:52;;;;;;;2.95;1.85;;;15.80;99.90;;;;;;5052404;28;20044;-76
2023/09/05 03:16:21;;;;;;;3.85;2.00;;;15.90;99.90;;;;;;5068153;28;20127;-77
2023/09/05 03:18:50;;;;;;;5.32;2.17;;;15.90;99.90;;;;;;5045838;28;20054;-77
2023/09/05 03:21:18;;;;;;;3.97;2.05;;;15.90;99.90;;;;;;5060643;28;20466;-76
2023/09/05 03:23:45;;;;;;;3.80;1.75;;;15.80;99.90;;;;;;5070449;28;20441;-77
2023/09/05 03:26:12;;;;;;;4.70;2.38;;;15.80;99.90;;;;;;5075403;28;20040;-77
2023/09/05 03:28:44;;;;;;;7.63;2.38;;;15.80;99.90;;;;;;5080525;28;20071;-76
2023/09/05 03:31:15;;;;;;;4.95;2.33;;;15.80;99.90;;;;;;5068434;28;20032;-77
2023/09/05 03:33:42;;;;;;;3.65;2.20;;;15.80;99.90;;;;;;5063729;28;20040;-77
2023/09/05 03:36:10;;;;;;;4.45;2.05;;;15.80;99.90;;;;;;5057595;28;20045;-76
2023/09/05 03:38:38;;;;;;;6.78;2.97;;;15.90;99.90;;;;;;5069716;28;20121;-77
2023/09/05 03:41:05;;;;;;;5.32;2.75;;;15.90;99.90;;;;;;5080355;28;20068;-76
2023/09/05 03:43:32;;;;;;;5.95;3.03;;;15.80;99.90;;;;;;5064736;28;20059;-77
2023/09/05 03:46:00;;;;;;;7.45;3.38;;;15.80;99.90;;;;;;5049163;28;20044;-77
2023/09/05 03:48:27;;;;;;;5.70;3.80;;;15.70;99.90;;;;;;5076559;28;20044;-77
2023/09/05 03:50:54;;;;;;;5.68;3.47;;;15.70;99.90;;;;;;5062601;28;20042;-77
2023/09/05 03:53:22;;;;;;;5.95;3.30;;;15.70;99.90;;;;;;5062424;28;20051;-77
2023/09/05 03:55:49;;;;;;;5.07;3.05;;;15.70;99.90;;;;;;5055924;28;20372;-77
2023/09/05 03:58:17;;;;;;;3.38;2.42;;;15.70;99.90;;;;;;5050508;28;20131;-77
2023/09/05 04:00:45;;;;;;;6.70;2.60;;;15.70;99.90;;;;;;5049960;28;20048;-77
2023/09/05 04:03:12;;;;;;;3.67;2.15;;;15.70;99.90;;;;;;5074517;28;20055;-77
2023/09/05 04:05:40;;;;;;;6.70;2.80;;;15.70;99.90;;;;;;5046091;28;20056;-77
2023/09/05 04:08:09;;;;;;;5.57;2.65;;;15.60;99.90;;;;;;5076491;28;20052;-77
2023/09/05 04:10:37;;;;;;;5.30;2.65;;;15.60;99.90;;;;;;5063100;28;20075;-77
2023/09/05 04:13:04;;;;;;;5.32;2.70;;;15.60;99.90;;;;;;5064651;28;20036;-77
2023/09/05 04:15:32;;;;;;;3.20;2.20;;;15.60;99.90;;;;;;5063156;28;20032;-77
2023/09/05 04:17:59;;;;;;;5.40;2.75;;;15.60;99.90;;;;;;5067922;28;20105;-77
2023/09/05 04:20:29;;;;;;;6.18;2.92;;;15.60;99.90;;;;;;5075403;28;20037;-77
2023/09/05 04:22:56;;;;;;;4.85;2.58;;;15.50;99.90;;;;;;5066766;28;20055;-77
2023/09/05 04:25:26;;;;;;;5.22;3.00;;;15.50;99.90;;;;;;5063026;28;20411;-77
2023/09/05 04:27:53;;;;;;;4.50;2.60;;;15.60;99.90;;;;;;5067127;28;20407;-77
2023/09/05 04:30:20;;;;;;;6.22;3.33;;;15.50;99.90;;;;;;5078877;28;20443;-77
2023/09/05 04:32:47;;;;;;;5.78;2.80;;;15.60;99.90;;;;;;5060909;28;20094;-77
2023/09/05 04:35:16;;;;;;;5.53;3.22;;;15.50;99.90;;;;;;5051563;28;20040;-77
2023/09/05 04:37:43;;;;;;;6.05;2.78;;;15.50;99.90;;;;;;5067090;28;20120;-77
2023/09/05 04:40:10;;;;;;;7.05;3.28;;;15.60;99.90;;;;;;5048078;28;20151;-77
2023/09/05 04:42:39;;;;;;;6.00;3.35;;;15.60;99.90;;;;;;5062757;28;20058;-77
2023/09/05 04:45:07;;;;;;;6.43;3.05;;;15.60;99.90;;;;;;5077233;28;20094;-77
2023/09/05 04:47:34;;;;;;;5.47;3.35;;;15.60;99.90;;;;;;5059367;28;20048;-77
2023/09/05 04:50:01;;;;;;;10.70;4.57;;;15.60;99.90;;;;;;5061261;28;20052;-77
2023/09/05 04:52:29;;;;;;;9.90;3.38;;;15.60;99.90;;;;;;5061849;28;20056;-76
2023/09/05 04:54:58;;;;;;;8.93;3.63;;;15.60;99.90;;;;;;5064723;28;20028;-79
2023/09/05 04:57:27;;;;;;;6.25;2.75;;;15.70;99.90;;;;;;5062745;28;20055;-76
2023/09/05 04:59:59;;;;;;;4.18;2.28;;;15.70;99.90;;;;;;5054103;28;20053;-76
2023/09/05 05:02:27;;;;;;;5.57;2.67;;;15.80;99.90;;;;;;5057180;28;20057;-77
2023/09/05 05:04:55;;;;;;;5.60;2.75;;;15.80;99.90;;;;;;5078014;28;20048;-77
2023/09/05 05:07:22;;;;;;;4.20;2.05;;;16.00;99.90;;;;;;5049734;28;20056;-77
2023/09/05 05:09:49;;;;;;;7.25;2.33;;;16.00;99.90;;;;;;5058486;28;20047;-77
2023/09/05 05:12:17;;;;;;;4.97;2.30;;;16.00;99.90;;;;;;5063582;28;20063;-78
2023/09/05 05:14:44;;;;;;;3.95;2.25;;;16.10;99.90;;;;;;5066756;28;20095;-78
2023/09/05 05:17:14;;;;;;;4.97;1.92;;;16.10;99.90;;;;;;5049087;28;20106;-78
2023/09/05 05:19:41;;;;;;;4.93;2.33;;;16.20;99.90;;;;;;5055879;28;20052;-79
2023/09/05 05:22:11;;;;;;;3.22;1.95;;;16.30;99.90;;;;;;5067424;28;20040;-78
2023/09/05 05:24:38;;;;;;;2.70;1.60;;;16.30;99.90;;;;;;5076485;28;20127;-79
2023/09/05 05:27:06;;;;;;;3.08;1.80;;;16.40;99.90;;;;;;5071576;28;20126;-77
2023/09/05 05:29:33;;;;;;;3.50;1.92;;;16.40;99.90;;;;;;5071464;28;20040;-77
2023/09/05 05:32:01;;;;;;;5.97;2.40;;;16.50;99.90;;;;;;5051196;28;20037;-78
2023/09/05 05:34:29;;;;;;;4.38;2.13;;;16.50;99.90;;;;;;5071049;28;20039;-78
2023/09/05 05:36:57;;;;;;;8.10;1.80;;;16.60;99.90;;;;;;5053758;28;20036;-78
2023/09/05 05:39:25;;;;;;;3.25;1.77;;;16.70;99.90;;;;;;5076091;28;20052;-77
2023/09/05 05:41:53;;;;;;;2.63;1.60;;;16.70;99.90;;;;;;5054828;28;20044;-78
2023/09/05 05:44:21;;;;;;;5.32;2.53;;;16.80;99.90;;;;;;5059242;28;22749;-77
2023/09/05 05:46:48;;;;;;;3.97;1.90;;;16.80;99.90;;;;;;5058221;28;20056;-77
2023/09/05 05:49:15;;;;;;;4.30;1.80;;;16.90;99.90;;;;;;5053575;28;20076;-78
2023/09/05 05:51:42;;;;;;;3.95;2.13;;;16.90;99.90;;;;;;5069769;28;20129;-78
2023/09/05 05:54:09;;;;;;;3.20;1.98;;;17.00;99.90;;;;;;5066732;28;20048;-78
2023/09/05 05:56:37;;;;;;;4.10;2.00;;;17.10;99.90;;;;;;5062046;28;20041;-78
2023/09/05 05:59:04;;;;;;;4.25;1.83;;;17.10;99.90;;;;;;5075507;28;20083;-77
2023/09/05 06:01:32;;;;;;;4.85;2.08;;;17.20;99.90;;;;;;5059337;28;20044;-78
2023/09/05 06:03:59;;;;;;;2.90;1.83;;;17.40;99.90;;;;;;5054465;28;20494;-79
2023/09/05 06:06:27;;;;;;;4.38;2.88;;;17.50;99.90;;;;;;5064802;28;20075;-76
2023/09/05 06:08:54;;;;;;;6.72;2.10;;;17.60;99.30;;;;;;5059204;28;22762;-77
2023/09/05 06:11:21;;;;;;;2.08;1.40;;;17.80;98.70;;;;;;5063095;28;20977;-77
2023/09/05 06:13:51;;;;;;;4.70;1.92;;;17.90;98.40;;;;;;5077952;28;20053;-78
2023/09/05 06:16:20;;;;;;;3.60;1.55;;;18.10;97.50;;;;;;5078474;28;20040;-78
2023/09/05 06:18:48;;;;;;;2.90;1.40;;;18.30;96.90;;;;;;5077633;28;20044;-78
2023/09/05 06:21:15;;;;;;;3.33;1.42;;;18.40;96.20;;;;;;5065199;28;20055;-78
2023/09/05 06:23:42;;;;;;;2.97;1.50;;;18.50;95.40;;;;;;5060549;28;20059;-77
2023/09/05 06:26:09;;;;;;;3.35;1.55;;;18.60;95.00;;;;;;5078108;28;20458;-77
2023/09/05 06:28:36;;;;;;;3.22;1.50;;;18.70;94.20;;;;;;5064862;28;20048;-79
2023/09/05 06:31:05;;;;;;;3.63;1.42;;;18.90;93.80;;;;;;5079480;28;20071;-78
2023/09/05 06:33:33;;;;;;;3.38;1.60;;;19.00;93.70;;;;;;5047001;28;20044;-77
2023/09/05 06:36:07;;;;;;;2.42;1.20;;;19.10;93.10;;;;;;5072612;28;20040;-77
2023/09/05 06:38:35;;;;;;;2.53;1.27;;;19.20;92.70;;;;;;5073213;28;20117;-76
2023/09/05 06:41:11;;;;;;;3.92;1.40;;;19.30;92.20;;;;;;5060856;28;20055;-78
2023/09/05 06:43:42;;;;;;;2.95;1.25;;;19.40;92.00;;;;;;5075941;28;20089;-79
2023/09/05 06:46:09;;;;;;;1.70;1.23;;;19.60;91.60;;;;;;5071729;28;20559;-80
2023/09/05 06:48:39;;;;;;;4.05;1.55;;;19.70;91.00;;;;;;5062175;28;20044;-79
2023/09/05 06:51:06;;;;;;;3.95;1.45;;;19.70;90.70;;;;;;5062563;28;20105;-77
2023/09/05 06:53:34;;;;;;;2.80;1.30;;;19.80;90.10;;;;;;5080310;28;20064;-77
2023/09/05 06:56:01;;;;;;;2.67;1.58;;;19.90;90.20;;;;;;5078275;28;20055;-77
2023/09/05 06:58:28;;;;;;;3.08;1.55;;;20.00;90.20;;;;;;5059500;28;20080;-79
2023/09/05 07:00:56;;;;;;;3.38;1.60;;;20.10;88.90;;;;;;5069609;28;20052;-79
2023/09/05 07:03:26;;;;;;;2.58;1.50;;;20.10;88.70;;;;;;5082307;28;20047;-77
2023/09/05 07:05:54;;;;;;;2.63;1.40;;;20.20;88.00;;;;;;5068402;28;20048;-79
2023/09/05 07:08:33;;;;;;;5.15;1.63;;;20.40;88.10;;;;;;5054179;28;20040;-78
2023/09/05 07:11:00;;;;;;;2.92;1.42;;;20.40;87.00;;;;;;5059052;28;20452;-78
2023/09/05 07:13:27;;;;;;;2.55;1.55;;;20.50;87.10;;;;;;5071226;28;20048;-77
2023/09/05 07:15:57;;;;;;;4.05;2.08;;;20.70;86.80;;;;;;5051096;28;20170;-77
2023/09/05 07:18:25;;;;;;;3.13;2.05;;;20.70;85.90;;;;;;5071323;28;20098;-76
2023/09/05 07:20:53;;;;;;;3.13;1.77;;;20.80;85.80;;;;;;5050211;28;20044;-78
2023/09/05 07:23:20;;;;;;;2.45;1.23;;;20.90;86.80;;;;;;5057596;28;20048;-80
2023/09/05 07:25:47;;;;;;;3.33;1.45;;;21.00;85.80;;;;;;5053189;28;20521;-77
2023/09/05 07:28:14;;;;;;;2.85;1.58;;;21.10;84.60;;;;;;5066461;28;20071;-78
2023/09/05 07:30:42;;;;;;;4.97;1.70;;;21.10;84.80;;;;;;5061123;28;20504;-77
2023/09/05 07:33:10;;;;;;;2.50;1.00;;;21.30;84.00;;;;;;5067924;28;20097;-76
2023/09/05 07:35:37;;;;;;;2.72;1.70;;;21.30;83.70;;;;;;5065534;28;20040;-79
2023/09/05 07:38:05;;;;;;;2.17;1.20;;;21.30;83.00;;;;;;5069983;28;20033;-80
2023/09/05 07:40:32;;;;;;;2.95;1.60;;;21.40;82.10;;;;;;5054307;28;20067;-77
2023/09/05 07:43:00;;;;;;;2.58;1.60;;;21.40;82.00;;;;;;5065924;28;20101;-79
2023/09/05 07:45:27;;;;;;;2.53;1.35;;;21.50;82.20;;;;;;5077970;28;20050;-78
2023/09/05 07:47:55;;;;;;;3.83;1.73;;;21.70;83.00;;;;;;5058306;28;20863;-78
2023/09/05 07:50:22;;;;;;;2.83;1.70;;;21.70;81.80;;;;;;5069051;28;20036;-78
2023/09/05 07:52:50;;;;;;;3.38;1.27;;;21.80;81.10;;;;;;5058163;28;20032;-77
2023/09/05 07:55:17;;;;;;;6.88;1.23;;;21.90;80.10;;;;;;5066264;28;20509;-78
2023/09/05 07:57:44;;;;;;;3.47;1.70;;;22.00;79.90;;;;;;5060193;28;20055;-76
2023/09/05 08:00:15;;;;;;;3.95;1.45;;;22.10;79.90;;;;;;5065730;28;20139;-79
2023/09/05 08:02:43;;;;;;;3.97;1.75;;;22.20;79.70;;;;;;5070376;28;20047;-78
2023/09/05 08:05:12;;;;;;;2.85;1.55;;;22.30;79.50;;;;;;5061624;28;20112;-78
2023/09/05 08:07:40;;;;;;;2.65;1.38;;;22.40;78.90;;;;;;5047613;28;20056;-77
2023/09/05 08:10:07;;;;;;;2.00;1.27;;;22.40;77.90;;;;;;5052943;28;22857;-78
2023/09/05 08:12:35;;;;;;;5.80;2.17;;;22.50;78.70;;;;;;5041470;28;20851;-78
2023/09/05 08:15:03;;;;;;;3.03;1.70;;;22.70;78.80;;;;;;5043420;28;20049;-78
2023/09/05 08:17:30;;;;;;;4.57;2.00;;;22.60;77.50;;;;;;5068455;28;20109;-76
2023/09/05 08:19:58;;;;;;;3.45;1.55;;;22.60;76.80;;;;;;5063205;28;22976;-79
2023/09/05 08:22:25;;;;;;;4.03;1.48;;;22.60;76.50;;;;;;5053215;28;20074;-78
2023/09/05 08:24:53;;;;;;;4.75;2.10;;;22.80;77.10;;;;;;5068151;28;20510;-78
2023/09/05 08:27:28;;;;;;;2.33;1.33;;;22.80;76.00;;;;;;5061673;28;20112;-77
2023/09/05 08:29:59;;;;;;;2.92;1.02;;;22.80;76.00;;;;;;5079805;28;20040;-78
2023/09/05 08:32:26;;;;;;;3.80;1.50;;;22.90;75.90;;;;;;5068079;28;20101;-79
2023/09/05 08:34:53;;;;;;;2.83;1.23;;;22.90;75.40;;;;;;5050989;28;20060;-79
2023/09/05 08:37:20;;;;;;;2.05;1.10;;;22.90;75.20;;;;;;5067579;28;20044;-78
2023/09/05 08:39:48;;;;;;;3.05;1.30;;;23.00;75.50;;;;;;5078381;28;20052;-77
2023/09/05 08:42:16;;;;;;;2.88;1.73;;;23.10;75.90;;;;;;5068182;28;20048;-78
2023/09/05 08:44:44;;;;;;;2.33;1.02;;;23.10;74.40;;;;;;5082223;28;20049;-78
2023/09/05 08:47:11;;;;;;;2.78;1.15;;;22.90;73.90;;;;;;5066072;28;20071;-78
2023/09/05 08:49:38;;;;;;;2.47;1.10;;;23.00;74.40;;;;;;5066548;28;20104;-79
2023/09/05 08:52:06;;;;;;;2.40;1.55;;;23.00;74.40;;;;;;5049494;28;20051;-79
2023/09/05 08:54:34;;;;;;;1.58;1.08;;;23.10;74.50;;;;;;5048574;28;22921;-78
2023/09/05 08:57:04;;;;;;;2.55;1.20;;;23.00;74.00;;;;;;5048047;28;20044;-78
2023/09/05 08:59:32;;;;;;;2.95;1.42;;;23.00;74.40;;;;;;5061568;28;20135;-78
2023/09/05 09:02:00;;;;;;;2.55;1.08;;;23.00;74.50;;;;;;5065543;28;20057;-79
2023/09/05 09:04:29;;;;;;;2.92;1.40;;;23.10;74.40;;;;;;5031701;28;20052;-77
2023/09/05 09:07:00;;;;;;;2.85;1.20;;;23.10;74.10;;;;;;5080447;28;20047;-79
2023/09/05 09:09:34;;;;;;;2.03;1.03;;;23.20;74.40;;;;;;5072158;28;20093;-77
2023/09/05 09:12:03;;;;;;;1.50;1.00;;;23.20;74.80;;;;;;5076760;28;20047;-78
2023/09/05 09:14:30;;;;;;;2.90;1.48;;;23.30;74.60;;;;;;5060685;28;20040;-79
2023/09/05 09:17:01;;;;;;;2.50;1.10;;;23.30;73.60;;;;;;5058429;28;20119;-79
2023/09/05 09:19:29;;;;;;;2.15;1.10;;;23.20;73.80;;;;;;5042719;28;20534;-77
2023/09/05 09:22:01;;;;;;;3.78;1.23;;;23.50;74.20;;;;;;5047299;28;20036;-78
2023/09/05 09:24:33;;;;;;;3.00;1.23;;;23.60;74.30;;;;;;5047585;28;20066;-78
2023/09/05 09:27:05;;;;;;;2.38;1.20;;;23.60;73.20;;;;;;5074435;28;20048;-77
2023/09/05 09:29:33;;;;;;;;;;;23.60;74.00;;;;;;5077586;28;20044;-79
2023/09/05 09:32:06;;;;;;;4.50;1.27;;;23.60;74.30;;;;;;5060559;28;20302;-77
2023/09/05 09:34:35;;;;;;;2.08;1.42;;;23.60;72.80;;;;;;5060215;28;20044;-79
2023/09/05 09:37:03;;;;;;;1.58;1.08;;;23.50;74.00;;;;;;5060252;28;20094;-79
2023/09/05 09:39:32;;;;;;;3.17;1.33;;;23.60;73.60;;;;;;5068119;28;20040;-80
2023/09/05 09:42:00;;;;;;;2.67;1.20;;;23.50;73.00;;;;;;5047814;28;20040;-78
2023/09/05 09:44:32;;;;;;;1.25;0.82;;;23.50;72.80;;;;;;5073112;28;20515;-79
2023/09/05 09:47:01;;;;;;;3.20;1.00;;;23.60;74.60;;;;;;5068218;28;20036;-78
2023/09/05 09:49:29;;;;;;;2.55;1.02;;;23.80;72.80;;;;;;5062094;28;20045;-79
2023/09/05 09:52:02;;;;;;;1.15;0.90;;;23.70;73.20;;;;;;5058172;28;20038;-78
2023/09/05 09:54:36;;;;;;;2.35;0.70;;;23.70;73.10;;;;;;5065978;28;20931;-80
2023/09/05 09:57:05;;;;;;;2.00;1.10;;;23.80;73.70;;;;;;5079886;28;20048;-78
2023/09/05 09:59:36;;;;;;;2.10;0.90;;;23.80;72.50;;;;;;5049993;28;20106;-78
2023/09/05 10:02:12;;;;;;;1.75;0.90;;;23.90;74.20;;;;;;5044241;28;20036;-80
2023/09/05 10:04:43;;;;;;;1.17;0.85;;;23.90;73.00;;;;;;5052148;28;20133;-80
2023/09/05 10:07:16;;;;;;;1.70;0.90;;;23.90;73.60;;;;;;5081337;28;20059;-77
2023/09/05 10:09:45;;;;;;;2.38;1.00;;;23.90;72.80;;;;;;5048253;28;20059;-80
2023/09/05 10:12:15;;;;;;;1.40;0.70;;;23.80;72.20;;;;;;5059086;28;20052;-79
2023/09/05 10:14:44;;;;;;;1.70;0.77;;;23.80;72.20;;;;;;5058104;28;20036;-79
2023/09/05 10:17:13;;;;;;;1.83;1.00;;;23.90;72.60;;;;;;5042123;28;20079;-80
2023/09/05 10:19:44;;;;;;;1.83;0.70;;;23.80;71.90;;;;;;5064831;28;20048;-78
2023/09/05 10:22:16;;;;;;;1.80;0.82;;;23.90;72.70;;;;;;5065424;28;20051;-78
2023/09/05 10:24:45;;;;;;;2.08;0.70;;;24.00;73.20;;;;;;5051017;28;20050;-79
2023/09/05 10:27:13;;;;;;;1.15;0.82;;;24.00;72.60;;;;;;5074317;28;20044;-78
2023/09/05 10:29:45;;;;;;;1.55;0.80;;;24.00;72.30;;;;;;5063343;28;20048;-77
2023/09/05 10:32:22;;;;;;;2.03;1.13;;;24.00;72.20;;;;;;5062770;28;20558;-78
2023/09/05 10:34:50;;;;;;;1.70;0.55;;;24.20;73.50;;;;;;5063700;28;20045;-78
2023/09/05 10:37:55;;;;;;;1.10;0.70;;;24.20;72.00;;;;;;5077984;28;20047;-78
2023/09/05 10:40:37;;;;;;;1.55;0.82;;;24.20;72.50;;;;;;5064465;28;20048;-80
2023/09/05 10:43:19;;;;;;;1.58;0.90;;;24.30;71.70;;;;;;5064898;28;20372;-77
2023/09/05 10:45:55;;;;;;;2.65;0.82;;;24.30;72.70;;;;;;5061123;28;21628;-78
2023/09/05 10:48:45;;;;;;;5.15;0.82;;;24.40;72.00;;;;;;5065510;28;20078;-80
2023/09/05 10:51:14;;;;;;;1.42;0.65;;;24.40;72.10;;;;;;5042203;28;20051;-80
2023/09/05 10:53:43;;;;;;;2.08;0.90;;;24.20;71.70;;;;;;5073083;28;20437;-77
2023/09/05 10:56:36;;;;;;;1.83;0.68;;;24.20;71.60;;;;;;5064039;28;20063;-79
2023/09/05 10:59:07;;;;;;;1.80;0.80;;;24.20;71.10;;;;;;5076679;28;20051;-78
2023/09/05 11:01:39;;;;;;;1.83;0.80;;;24.30;72.10;;;;;;5063277;28;20081;-81
2023/09/05 11:04:20;;;;;;;1.02;0.77;;;24.50;72.00;;;;;;5043708;28;20072;-79
2023/09/05 11:07:02;;;;;;;1.83;0.77;;;24.60;71.70;;;;;;5054631;28;20044;-79
2023/09/05 11:09:48;;;;;;;1.48;0.88;;;24.70;71.30;;;;;;5056385;28;20063;-79
2023/09/05 11:12:17;;;;;;;1.13;0.60;;;24.60;71.20;;;;;;5071928;28;20601;-80
2023/09/05 11:14:45;;;;;;;1.75;0.70;;;24.60;70.20;;;;;;5061113;28;20974;-78
2023/09/05 11:17:15;;;;;;;3.78;0.80;;;24.60;70.20;;;;;;5044010;28;20083;-81
2023/09/05 11:19:47;;;;;;;1.50;0.70;;;24.70;70.30;;;;;;5037814;28;22876;-79
2023/09/05 11:22:17;;;;;;;1.33;0.40;;;24.60;70.70;;;;;;5056601;28;20045;-80
2023/09/05 11:24:50;;;;;;;1.02;0.65;;;24.60;71.70;;;;;;5044798;28;20052;-79
2023/09/05 11:27:32;;;;;;;1.42;0.95;;;24.80;70.50;;;;;;5044246;28;20063;-79
2023/09/05 11:30:04;;;;;;;2.47;0.90;;;24.90;70.70;;;;;;5060873;28;20123;-79
2023/09/05 11:32:39;;;;;;;2.55;1.42;;;25.00;70.50;;;;;;5074489;28;20044;-79
2023/09/05 11:35:10;;;;;;;2.13;0.68;;;25.00;69.90;;;;;;5067381;28;20036;-78
2023/09/05 11:37:37;;;;;;;2.05;0.80;;;25.00;70.10;;;;;;5067151;28;20037;-81
2023/09/05 11:40:12;;;;;;;1.00;0.55;;;25.00;69.60;;;;;;5055252;28;20052;-77
2023/09/05 11:42:39;;;;;;;1.60;0.57;;;25.00;69.50;;;;;;5062176;28;20140;-79
2023/09/05 11:45:17;;;;;;;2.05;0.70;;;24.90;68.20;;;;;;5051407;28;20079;-79
2023/09/05 11:47:45;;;;;;;1.08;0.70;;;24.90;69.50;;;;;;5078515;28;20058;-79
2023/09/05 11:50:14;;;;;;;1.75;0.73;;;24.60;69.80;;;;;;5075804;28;20048;-78
2023/09/05 11:52:42;;;;;;;1.30;0.63;;;24.60;71.10;;;;;;5072223;28;20067;-79
2023/09/05 11:55:10;;;;;;;2.38;0.65;;;24.70;69.70;;;;;;5050956;28;20043;-80
2023/09/05 11:57:39;;;;;;;1.25;0.70;;;24.90;70.00;;;;;;5063037;28;20079;-79
2023/09/05 12:00:11;;;;;;;1.45;0.75;;;25.00;71.50;;;;;;5075921;28;20036;-79
2023/09/05 12:02:38;;;;;;;1.92;0.50;;;25.10;70.10;;;;;;5063403;28;20032;-81
2023/09/05 12:05:08;;;;;;;1.33;0.75;;;25.10;68.90;;;;;;5062659;28;20136;-79
2023/09/05 12:07:36;;;;;;;1.20;0.63;;;25.10;68.60;;;;;;5058975;28;20043;-81
2023/09/05 12:10:04;;;;;;;1.48;0.60;;;25.20;70.10;;;;;;5048784;28;20397;-80
2023/09/05 12:12:31;;;;;;;3.90;1.40;;;25.10;68.50;;;;;;5059544;28;20063;-77
2023/09/05 12:14:59;;;;;;;1.77;0.90;;;25.30;70.70;;;;;;5078215;28;20041;-79
2023/09/05 12:17:27;;;;;;;1.33;1.00;;;25.40;70.00;;;;;;5068510;28;20044;-78
2023/09/05 12:19:57;;;;;;;3.15;1.50;;;25.30;69.40;;;;;;5063454;28;20097;-78
2023/09/05 12:22:29;;;;;;;1.15;0.90;;;25.00;70.00;;;;;;5067032;28;20059;-78
2023/09/05 12:25:09;;;;;;;;;;;24.70;69.50;;;;;;5069535;28;20063;-82
2023/09/05 12:27:39;;;;;;;1.55;0.90;;;24.70;70.00;;;;;;5058192;28;19927;-81
2023/09/05 12:30:39;;;;;;;1.38;0.55;;;24.80;69.10;;;;;;5075500;28;20040;-80
2023/09/05 12:33:06;;;;;;;1.60;0.65;;;24.90;68.70;;;;;;5054945;28;20041;-77
2023/09/05 12:35:34;;;;;;;1.75;0.77;;;25.10;68.90;;;;;;5062569;28;20063;-79
2023/09/05 12:38:12;;;;;;;1.05;0.60;;;25.20;69.20;;;;;;5077469;28;20044;-78
2023/09/05 12:40:40;;;;;;;2.38;0.85;;;25.10;69.20;;;;;;5047363;28;20221;-80
2023/09/05 12:43:07;;;;;;;1.70;0.90;;;24.80;68.70;;;;;;5054814;28;20399;-80
2023/09/05 12:45:34;;;;;;;2.20;1.00;;;24.80;69.00;;;;;;5046253;28;20094;-79
2023/09/05 12:48:01;;;;;;;1.95;0.68;;;25.00;69.00;;;;;;5067269;28;22840;-78
2023/09/05 12:50:36;;;;;;;3.45;0.73;;;25.00;67.60;;;;;;5060578;28;20063;-79
2023/09/05 12:53:11;;;;;;;2.22;0.60;;;25.10;67.30;;;;;;5051304;28;20093;-79
2023/09/05 12:55:38;;;;;;;1.52;0.70;;;25.10;67.70;;;;;;5063350;28;20037;-79
2023/09/05 12:58:06;;;;;;;1.65;1.08;;;25.00;67.70;;;;;;5055462;28;20072;-79